Time;durP1;ratioP1;P1;durP2;ratioP2;P2;SDS_P1;SDS_P2;PMS_P1;PMS_P2;Temp;Humidity;BMP_temperature;BMP_pressure;BME280_temperature;BME280_humidity;BME280_pressure;Samples;Min_cycle;Max_cycle;Signal;HPM_P1;HPM_P2
2022/04/30 00:00:36;;;;;;;12.25;5.90;;;7.20;72.50;;;;;;5008325;28;25073;-69
2022/04/30 00:03:01;;;;;;;7.40;5.65;;;7.10;70.00;;;;;;5008727;28;25076;-70
2022/04/30 00:05:32;;;;;;;8.70;5.88;;;7.10;69.20;;;;;;5006954;28;25056;-69
2022/04/30 00:07:59;;;;;;;10.93;5.85;;;7.00;70.80;;;;;;5009674;28;25048;-68
2022/04/30 00:10:25;;;;;;;9.20;5.93;;;7.00;70.60;;;;;;5021111;28;25068;-71
2022/04/30 00:12:52;;;;;;;8.65;5.63;;;6.90;71.30;;;;;;5027473;28;25109;-69
2022/04/30 00:15:17;;;;;;;11.15;5.75;;;7.00;73.40;;;;;;5011410;28;25102;-70
2022/04/30 00:17:44;;;;;;;10.43;5.55;;;6.90;70.50;;;;;;5007731;28;25220;-69
2022/04/30 00:20:09;;;;;;;10.05;5.90;;;6.90;72.00;;;;;;5005505;28;25103;-70
2022/04/30 00:22:35;;;;;;;9.45;4.75;;;6.80;72.90;;;;;;5008782;28;25099;-70
2022/04/30 00:25:01;;;;;;;13.55;5.95;;;6.80;74.90;;;;;;5008955;28;25128;-69
2022/04/30 00:27:27;;;;;;;14.93;6.55;;;6.80;75.60;;;;;;5008350;28;25091;-69
2022/04/30 00:29:53;;;;;;;11.32;5.85;;;6.70;76.50;;;;;;5007323;28;25098;-68
2022/04/30 00:32:21;;;;;;;9.77;6.60;;;6.80;77.50;;;;;;5008413;28;25164;-70
2022/04/30 00:34:47;;;;;;;13.30;6.40;;;6.70;78.90;;;;;;5009176;28;25088;-69
2022/04/30 00:37:13;;;;;;;11.63;6.68;;;6.60;81.30;;;;;;5009293;28;25088;-70
2022/04/30 00:39:39;;;;;;;11.93;6.85;;;6.60;83.50;;;;;;5009420;28;25068;-69
2022/04/30 00:42:04;;;;;;;13.68;7.45;;;6.60;85.70;;;;;;5008048;28;25052;-70
2022/04/30 00:44:30;;;;;;;13.50;7.03;;;6.70;88.70;;;;;;5009052;28;25076;-69
2022/04/30 00:46:56;;;;;;;17.90;8.50;;;6.60;90.70;;;;;;5008082;28;25076;-69
2022/04/30 00:49:22;;;;;;;17.08;7.97;;;6.50;92.10;;;;;;5010011;28;25133;-69
2022/04/30 00:51:48;;;;;;;14.50;8.50;;;6.50;93.90;;;;;;5008556;28;25102;-69
2022/04/30 00:54:17;;;;;;;15.02;8.35;;;6.50;94.50;;;;;;5008943;28;25048;-70
2022/04/30 00:56:56;;;;;;;17.42;8.30;;;6.50;94.60;;;;;;5008655;28;25051;-68
2022/04/30 00:59:23;;;;;;;14.90;8.27;;;6.50;95.60;;;;;;5005776;28;25136;-70
2022/04/30 01:01:52;;;;;;;17.73;9.50;;;6.50;96.30;;;;;;5023210;28;25100;-69
2022/04/30 01:04:20;;;;;;;15.88;9.60;;;6.50;96.80;;;;;;5007878;28;25063;-69
2022/04/30 01:06:55;;;;;;;15.27;9.48;;;6.50;97.00;;;;;;5006368;28;25152;-70
2022/04/30 01:09:22;;;;;;;18.05;10.43;;;6.50;97.50;;;;;;5028688;28;25083;-67
2022/04/30 01:12:00;;;;;;;22.98;10.93;;;6.50;98.20;;;;;;5020060;28;25133;-68
2022/04/30 01:14:31;;;;;;;24.85;11.45;;;6.50;99.50;;;;;;5007707;28;25071;-69
2022/04/30 01:16:59;;;;;;;17.88;11.60;;;6.50;99.50;;;;;;5006757;28;25105;-70
2022/04/30 01:19:27;;;;;;;20.17;11.70;;;6.50;99.90;;;;;;5006611;28;25131;-70
2022/04/30 01:21:56;;;;;;;20.90;11.02;;;6.50;99.90;;;;;;5006117;28;25059;-70
2022/04/30 01:24:23;;;;;;;18.73;11.90;;;6.50;99.90;;;;;;5007531;28;25084;-71
2022/04/30 01:26:53;;;;;;;21.15;11.82;;;6.50;99.90;;;;;;5014255;28;25088;-70
2022/04/30 01:29:21;;;;;;;21.27;12.50;;;6.50;99.90;;;;;;5011363;28;25067;-69
2022/04/30 01:37:26;;;;;;;23.77;11.95;;;6.50;99.90;;;;;;5016259;28;25156;-69
2022/04/30 01:40:00;;;;;;;28.33;13.15;;;6.50;99.90;;;;;;5017482;28;25059;-71
2022/04/30 01:42:29;;;;;;;22.15;13.13;;;6.50;99.90;;;;;;5016433;28;25058;-71
2022/04/30 01:44:57;;;;;;;21.90;13.48;;;6.60;99.90;;;;;;5012001;28;25071;-70
2022/04/30 01:47:24;;;;;;;28.02;14.52;;;6.60;99.90;;;;;;5011127;28;25152;-68
2022/04/30 01:49:49;;;;;;;27.85;14.60;;;6.70;99.90;;;;;;5011604;28;25099;-69
2022/04/30 01:52:15;;;;;;;21.63;13.27;;;6.70;99.90;;;;;;5009159;28;25078;-69
2022/04/30 01:54:42;;;;;;;25.17;14.32;;;6.80;99.90;;;;;;5007753;28;25106;-69
2022/04/30 01:57:08;;;;;;;27.23;14.73;;;6.80;99.90;;;;;;5010246;28;25063;-70
2022/04/30 01:59:34;;;;;;;29.50;14.93;;;6.70;99.90;;;;;;5006052;28;25044;-70
2022/04/30 02:02:00;;;;;;;22.17;14.73;;;6.70;99.90;;;;;;5010228;28;25066;-70
2022/04/30 02:04:27;;;;;;;26.98;15.13;;;6.70;99.90;;;;;;5005737;28;25067;-70
2022/04/30 02:06:54;;;;;;;24.10;14.60;;;6.70;99.90;;;;;;5004314;28;25094;-69
2022/04/30 02:09:21;;;;;;;23.00;14.90;;;6.80;99.90;;;;;;5005773;28;25085;-69
2022/04/30 02:11:47;;;;;;;26.23;15.05;;;6.80;99.90;;;;;;5008909;28;25062;-67
2022/04/30 02:14:14;;;;;;;23.42;15.25;;;6.70;99.90;;;;;;5006335;28;25132;-69
2022/04/30 02:16:41;;;;;;;35.22;17.08;;;6.70;99.90;;;;;;5004973;28;25072;-69
2022/04/30 02:19:08;;;;;;;28.42;16.27;;;6.70;99.90;;;;;;5005793;28;25092;-70
2022/04/30 02:21:35;;;;;;;23.38;14.80;;;6.70;99.90;;;;;;5006605;28;25057;-70
2022/04/30 02:24:02;;;;;;;20.27;14.15;;;6.80;99.90;;;;;;5006783;28;25073;-69
2022/04/30 02:26:28;;;;;;;22.60;14.23;;;6.80;99.90;;;;;;5007324;28;25071;-67
2022/04/30 02:28:57;;;;;;;27.05;15.60;;;6.80;99.90;;;;;;5005502;28;25113;-70
2022/04/30 02:31:27;;;;;;;23.98;14.50;;;6.70;99.90;;;;;;5010212;28;25069;-69
2022/04/30 02:33:56;;;;;;;28.38;16.35;;;6.70;99.90;;;;;;5006178;28;25058;-70
2022/04/30 02:36:29;;;;;;;25.25;15.85;;;6.70;99.90;;;;;;5005535;28;25065;-71
2022/04/30 02:38:56;;;;;;;27.90;14.95;;;6.70;99.90;;;;;;5003451;28;25067;-70
2022/04/30 02:41:22;;;;;;;26.75;14.73;;;6.70;99.90;;;;;;5006445;28;25062;-70
2022/04/30 02:43:52;;;;;;;23.33;15.18;;;6.70;99.90;;;;;;5006011;28;25076;-71
2022/04/30 02:46:21;;;;;;;23.27;14.40;;;6.80;99.90;;;;;;5005072;28;25178;-69
2022/04/30 02:48:48;;;;;;;28.75;14.57;;;6.80;99.90;;;;;;5005436;28;25063;-71
2022/04/30 02:51:17;;;;;;;26.45;15.48;;;6.80;99.30;;;;;;5011105;28;25055;-68
2022/04/30 02:53:43;;;;;;;25.23;14.80;;;6.70;99.70;;;;;;5025161;28;25077;-70
2022/04/30 02:56:12;;;;;;;26.65;14.88;;;6.70;99.90;;;;;;5014040;28;25077;-69
2022/04/30 03:01:22;;;;;;;26.60;16.00;;;6.70;99.90;;;;;;5002778;28;25064;-70
2022/04/30 03:03:48;;;;;;;25.45;14.02;;;6.70;99.90;;;;;;5003991;28;25085;-70
2022/04/30 03:06:16;;;;;;;25.60;15.13;;;6.60;99.90;;;;;;5001941;28;25076;-70
2022/04/30 03:08:43;;;;;;;18.48;14.15;;;6.70;99.90;;;;;;5003350;28;25079;-69
2022/04/30 03:11:09;;;;;;;20.70;14.10;;;6.70;99.90;;;;;;5000909;28;25091;-68
2022/04/30 03:13:36;;;;;;;22.02;14.32;;;6.70;99.90;;;;;;5003667;28;25077;-70
2022/04/30 03:21:44;;;;;;;22.95;13.35;;;6.60;99.90;;;;;;5026367;28;25073;-70
2022/04/30 03:24:19;;;;;;;26.08;13.95;;;6.60;99.90;;;;;;5009987;28;25058;-69
2022/04/30 03:26:45;;;;;;;27.20;14.05;;;6.60;99.90;;;;;;5011344;28;25118;-68
2022/04/30 03:29:11;;;;;;;25.90;14.90;;;6.60;99.90;;;;;;5007724;28;25075;-69
2022/04/30 03:31:40;;;;;;;24.42;13.85;;;6.50;99.90;;;;;;5008952;28;25058;-70
2022/04/30 03:34:09;;;;;;;21.83;14.63;;;6.60;99.90;;;;;;5006846;28;25112;-69
2022/04/30 03:36:36;;;;;;;22.75;14.38;;;6.60;99.90;;;;;;5008255;28;25049;-69
2022/04/30 03:39:03;;;;;;;26.92;14.32;;;6.50;99.90;;;;;;5008711;28;25107;-70
2022/04/30 03:41:29;;;;;;;25.88;13.70;;;6.50;99.90;;;;;;5008092;28;25152;-69
2022/04/30 03:43:54;;;;;;;21.10;13.75;;;6.50;99.90;;;;;;5009278;28;25181;-69
2022/04/30 03:46:20;;;;;;;23.98;13.65;;;6.50;99.90;;;;;;5009258;28;25142;-69
2022/04/30 03:48:47;;;;;;;23.60;13.63;;;6.50;99.90;;;;;;5006369;28;25145;-70
2022/04/30 03:51:13;;;;;;;20.13;13.18;;;6.60;99.90;;;;;;5011301;28;25073;-69
2022/04/30 03:53:39;;;;;;;18.52;12.93;;;6.50;99.90;;;;;;5022019;28;25085;-69
2022/04/30 03:56:05;;;;;;;20.27;13.15;;;6.50;99.90;;;;;;5011334;28;25082;-70
2022/04/30 03:58:32;;;;;;;21.38;13.57;;;6.60;99.90;;;;;;5008525;28;25068;-69
2022/04/30 04:00:57;;;;;;;18.02;13.07;;;6.50;99.90;;;;;;5007680;28;25148;-70
2022/04/30 04:03:23;;;;;;;21.05;13.15;;;6.60;99.90;;;;;;5006444;28;25192;-70
2022/04/30 04:05:49;;;;;;;19.60;13.13;;;6.60;99.90;;;;;;5007495;28;25070;-69
2022/04/30 04:08:20;;;;;;;22.77;13.50;;;6.60;99.90;;;;;;5008065;28;25082;-70
2022/04/30 04:10:46;;;;;;;21.27;13.70;;;6.60;99.90;;;;;;5007499;28;25061;-70
2022/04/30 04:18:40;;;;;;;18.67;12.45;;;6.60;99.90;;;;;;5005939;28;25090;-70
2022/04/30 04:21:07;;;;;;;17.63;12.77;;;6.60;99.90;;;;;;5006783;28;25134;-69
2022/04/30 04:25:58;;;;;;;17.30;11.27;;;6.60;99.90;;;;;;5006067;28;25069;-69
2022/04/30 04:26:19;;;;;;;17.10;12.32;;;6.50;99.90;;;;;;5007640;28;25197;-70
2022/04/30 04:28:44;;;;;;;18.20;11.40;;;6.50;99.90;;;;;;5007240;28;25068;-70
2022/04/30 04:31:10;;;;;;;18.45;11.32;;;6.50;99.90;;;;;;5004899;28;25148;-71
2022/04/30 04:33:35;;;;;;;16.00;10.73;;;6.60;99.90;;;;;;5004347;28;25080;-70
2022/04/30 04:36:01;;;;;;;21.38;10.93;;;6.60;99.90;;;;;;5004188;28;25054;-70
2022/04/30 04:38:29;;;;;;;19.77;12.23;;;6.60;99.90;;;;;;5003942;28;25087;-69
2022/04/30 04:40:54;;;;;;;20.15;11.25;;;6.60;99.90;;;;;;5003931;28;25108;-70
2022/04/30 04:43:20;;;;;;;16.13;10.20;;;6.60;99.30;;;;;;5003907;28;25148;-69
2022/04/30 04:45:45;;;;;;;13.90;9.88;;;6.70;98.20;;;;;;5006603;28;25081;-73
2022/04/30 04:48:11;;;;;;;15.32;10.15;;;6.70;97.10;;;;;;5005572;28;25056;-70
2022/04/30 04:50:39;;;;;;;16.60;10.55;;;6.70;95.60;;;;;;5005832;28;25086;-68
2022/04/30 04:53:04;;;;;;;15.70;10.10;;;6.70;94.60;;;;;;5003957;28;25055;-70
2022/04/30 04:55:30;;;;;;;13.48;9.05;;;6.80;94.30;;;;;;5006798;28;25094;-70
2022/04/30 04:57:55;;;;;;;18.75;9.65;;;6.80;93.80;;;;;;5007055;28;25095;-69
2022/04/30 05:00:21;;;;;;;13.48;9.70;;;6.90;92.90;;;;;;5005526;28;25067;-69
2022/04/30 05:02:46;;;;;;;13.40;9.50;;;6.90;92.30;;;;;;5006581;28;25064;-69
2022/04/30 05:05:13;;;;;;;14.48;9.13;;;7.00;91.50;;;;;;5007218;28;25057;-70
2022/04/30 05:07:39;;;;;;;15.82;9.52;;;7.10;90.20;;;;;;5006134;28;25086;-68
2022/04/30 05:10:04;;;;;;;17.83;9.10;;;7.20;88.30;;;;;;5007665;28;25100;-69
2022/04/30 05:12:30;;;;;;;13.32;8.57;;;7.20;86.10;;;;;;5006237;28;25076;-69
2022/04/30 05:14:56;;;;;;;11.63;9.02;;;7.30;83.30;;;;;;5009576;28;25214;-70
2022/04/30 05:17:21;;;;;;;18.98;10.15;;;7.30;81.10;;;;;;5011091;28;25048;-72
2022/04/30 05:19:47;;;;;;;12.90;9.13;;;7.40;79.70;;;;;;5014331;28;25134;-70
2022/04/30 05:22:14;;;;;;;15.18;9.32;;;7.40;77.40;;;;;;5014683;28;25086;-70
2022/04/30 05:24:39;;;;;;;15.77;9.60;;;7.50;75.80;;;;;;5027838;28;25065;-70
2022/04/30 05:27:08;;;;;;;14.15;8.32;;;7.60;73.90;;;;;;5024102;28;25067;-69
2022/04/30 05:29:34;;;;;;;13.63;8.38;;;7.60;72.00;;;;;;5030176;28;25054;-69
2022/04/30 05:32:00;;;;;;;11.88;7.93;;;7.70;68.50;;;;;;5031614;28;25073;-69
2022/04/30 05:34:27;;;;;;;15.15;8.18;;;7.80;64.50;;;;;;5017896;28;25156;-70
2022/04/30 05:36:53;;;;;;;9.15;7.82;;;7.90;63.00;;;;;;5006236;28;25072;-70
2022/04/30 05:39:18;;;;;;;14.77;8.27;;;7.90;60.40;;;;;;5003543;28;25058;-70
2022/04/30 05:41:44;;;;;;;13.75;7.47;;;8.00;59.40;;;;;;5005985;28;25097;-71
2022/04/30 05:44:09;;;;;;;16.60;7.65;;;8.00;55.70;;;;;;5004549;28;25064;-70
2022/04/30 05:46:35;;;;;;;12.20;8.05;;;8.00;52.50;;;;;;5006165;28;25098;-70
2022/04/30 05:49:00;;;;;;;12.70;7.57;;;8.10;50.80;;;;;;5010965;28;25112;-70
2022/04/30 05:51:26;;;;;;;10.40;7.38;;;8.20;49.70;;;;;;5008493;28;25097;-68
2022/04/30 05:53:52;;;;;;;11.60;6.72;;;8.20;48.00;;;;;;5009733;28;25157;-70
2022/04/30 05:56:17;;;;;;;14.02;7.72;;;8.20;46.60;;;;;;5004620;28;25074;-70
2022/04/30 05:58:43;;;;;;;10.73;6.95;;;8.20;45.40;;;;;;5003929;28;25071;-70
2022/04/30 06:01:09;;;;;;;13.13;7.53;;;8.30;45.00;;;;;;5006207;28;25084;-70
2022/04/30 06:03:34;;;;;;;9.93;7.35;;;8.30;44.30;;;;;;5006269;28;25079;-70
2022/04/30 06:06:00;;;;;;;8.75;6.80;;;8.40;43.10;;;;;;5006551;28;25101;-71
2022/04/30 06:08:26;;;;;;;10.98;7.50;;;8.40;40.50;;;;;;5006417;28;25066;-70
2022/04/30 06:10:52;;;;;;;9.95;7.30;;;8.40;40.70;;;;;;5005769;28;25071;-69
2022/04/30 06:13:18;;;;;;;12.27;7.75;;;8.50;39.40;;;;;;5003464;28;25165;-70
2022/04/30 06:15:43;;;;;;;12.48;7.75;;;8.50;34.20;;;;;;5004423;28;25080;-71
2022/04/30 06:18:09;;;;;;;13.35;8.68;;;8.50;33.70;;;;;;5006337;28;25102;-70
2022/04/30 06:20:35;;;;;;;13.55;9.90;;;8.60;32.60;;;;;;5006137;28;25086;-69
2022/04/30 06:23:00;;;;;;;13.45;9.88;;;8.60;31.30;;;;;;5006154;28;25066;-70
2022/04/30 06:25:26;;;;;;;14.68;10.20;;;8.70;30.70;;;;;;5005769;28;25101;-72
2022/04/30 06:27:52;;;;;;;15.10;10.75;;;8.70;29.30;;;;;;5006136;28;25079;-70
2022/04/30 06:30:17;;;;;;;12.63;9.63;;;8.80;26.00;;;;;;5003705;28;25070;-70
2022/04/30 06:32:43;;;;;;;14.02;9.73;;;8.80;24.10;;;;;;5002904;28;25068;-70
2022/04/30 06:35:09;;;;;;;14.95;10.13;;;8.80;23.70;;;;;;5004237;28;25076;-70
2022/04/30 06:37:34;;;;;;;16.67;10.70;;;8.90;22.50;;;;;;5002375;28;25148;-71
2022/04/30 06:40:00;;;;;;;15.38;9.95;;;8.90;22.20;;;;;;5004669;28;25054;-71
2022/04/30 06:42:25;;;;;;;12.27;8.73;;;8.90;22.00;;;;;;5019479;28;25192;-69
2022/04/30 06:44:51;;;;;;;16.00;8.57;;;8.90;21.80;;;;;;5003691;28;25084;-69
2022/04/30 06:47:20;;;;;;;16.75;8.15;;;8.90;21.80;;;;;;5005009;28;25073;-70
2022/04/30 06:49:46;;;;;;;13.70;8.02;;;9.00;21.10;;;;;;5005408;28;25043;-68
2022/04/30 06:52:11;;;;;;;12.65;9.05;;;9.00;21.60;;;;;;5021453;28;25141;-69
2022/04/30 06:57:21;;;;;;;14.50;9.07;;;9.00;22.80;;;;;;5010270;28;25047;-70
2022/04/30 06:59:51;;;;;;;14.77;10.00;;;9.00;22.80;;;;;;5008324;28;25088;-71
2022/04/30 07:02:17;;;;;;;21.02;9.88;;;9.00;24.30;;;;;;5009643;28;25163;-69
2022/04/30 07:04:44;;;;;;;12.85;8.45;;;9.10;25.00;;;;;;5007050;28;25079;-68
2022/04/30 07:07:10;;;;;;;12.27;9.73;;;9.10;22.90;;;;;;5005777;28;25176;-70
2022/04/30 07:09:37;;;;;;;14.43;9.75;;;8.90;25.00;;;;;;5006436;28;25094;-70
2022/04/30 07:12:06;;;;;;;15.95;9.55;;;8.90;25.80;;;;;;5007749;28;25052;-68
2022/04/30 07:14:40;;;;;;;17.17;9.50;;;9.00;27.10;;;;;;5005766;28;25098;-70
2022/04/30 07:17:07;;;;;;;12.55;8.20;;;9.00;27.00;;;;;;5005213;28;25085;-69
2022/04/30 07:19:34;;;;;;;10.48;7.35;;;9.20;25.40;;;;;;5005584;28;25104;-70
2022/04/30 07:22:00;;;;;;;11.65;7.28;;;9.20;23.60;;;;;;5006353;28;25213;-70
2022/04/30 07:24:26;;;;;;;13.20;8.48;;;9.40;24.50;;;;;;5006311;28;25056;-70
2022/04/30 07:26:52;;;;;;;14.13;8.13;;;9.60;22.30;;;;;;5013764;28;25061;-71
2022/04/30 07:29:18;;;;;;;14.73;8.45;;;9.60;21.80;;;;;;5015917;28;25056;-70
2022/04/30 07:31:44;;;;;;;15.60;9.40;;;9.50;21.90;;;;;;5017345;28;25104;-68
2022/04/30 07:34:09;;;;;;;12.95;7.88;;;9.50;21.60;;;;;;5014535;28;25075;-71
2022/04/30 07:36:36;;;;;;;14.05;7.70;;;9.50;21.30;;;;;;5020008;28;25084;-69
2022/04/30 07:39:02;;;;;;;11.90;8.43;;;9.50;21.40;;;;;;5018016;28;25063;-69
2022/04/30 07:41:28;;;;;;;11.02;7.97;;;9.50;22.10;;;;;;5017833;28;25097;-70
2022/04/30 07:43:53;;;;;;;11.07;7.82;;;9.50;22.90;;;;;;5013148;28;25116;-68
2022/04/30 07:46:19;;;;;;;15.13;7.22;;;9.50;22.90;;;;;;5015951;28;25049;-70
2022/04/30 07:48:44;;;;;;;19.48;9.65;;;9.50;23.40;;;;;;5014064;28;25112;-69
2022/04/30 07:51:14;;;;;;;13.93;7.65;;;9.50;22.90;;;;;;5016391;28;25148;-68
2022/04/30 07:53:41;;;;;;;12.68;6.80;;;9.50;22.30;;;;;;5015638;28;25071;-70
2022/04/30 07:56:10;;;;;;;11.82;6.57;;;9.40;20.80;;;;;;5022223;28;25043;-69
2022/04/30 07:58:35;;;;;;;13.27;6.55;;;9.40;21.60;;;;;;5012394;28;25056;-69
2022/04/30 08:01:01;;;;;;;13.52;7.03;;;9.40;21.40;;;;;;5012419;28;25093;-68
2022/04/30 08:03:26;;;;;;;13.77;6.90;;;9.30;22.30;;;;;;5021509;28;25088;-70
2022/04/30 08:05:52;;;;;;;12.40;6.70;;;9.40;23.00;;;;;;5009928;28;25069;-73
2022/04/30 08:08:17;;;;;;;10.95;6.13;;;9.40;22.40;;;;;;5011463;28;25061;-69
2022/04/30 08:10:45;;;;;;;15.25;6.95;;;9.60;23.30;;;;;;5013325;28;25060;-69
2022/04/30 08:13:11;;;;;;;9.77;6.85;;;9.70;21.40;;;;;;5025407;28;25097;-70
2022/04/30 08:15:42;;;;;;;12.63;6.78;;;9.70;21.00;;;;;;5014377;28;25046;-69
2022/04/30 08:18:11;;;;;;;14.90;7.32;;;9.80;21.10;;;;;;5019689;28;25105;-70
2022/04/30 08:20:38;;;;;;;13.65;6.65;;;9.90;20.20;;;;;;5030916;28;25090;-68
2022/04/30 08:23:06;;;;;;;11.48;6.57;;;10.20;18.80;;;;;;5012427;28;25076;-69
2022/04/30 08:25:32;;;;;;;13.48;6.38;;;10.30;16.30;;;;;;5008600;28;25094;-67
2022/04/30 08:27:57;;;;;;;11.90;5.90;;;10.30;15.90;;;;;;5010498;28;25179;-69
2022/04/30 08:30:23;;;;;;;9.48;5.03;;;10.60;11.10;;;;;;5014440;28;25086;-70
2022/04/30 08:32:49;;;;;;;8.27;5.10;;;11.10;11.00;;;;;;5021306;28;25091;-70
2022/04/30 08:35:14;;;;;;;9.05;5.57;;;11.90;8.20;;;;;;5022646;28;25048;-70
2022/04/30 08:37:40;;;;;;;9.18;5.05;;;11.80;2.80;;;;;;5018244;28;25058;-70
2022/04/30 08:40:06;;;;;;;12.10;5.10;;;11.50;1.00;;;;;;5007392;28;25158;-72
2022/04/30 08:42:33;;;;;;;8.48;5.18;;;11.40;2.50;;;;;;5007065;28;25053;-72
2022/04/30 08:45:03;;;;;;;8.30;5.75;;;11.30;2.50;;;;;;5006178;28;25068;-70
2022/04/30 08:47:37;;;;;;;10.15;5.18;;;11.60;3.90;;;;;;5007804;28;25057;-71
2022/04/30 08:50:05;;;;;;;6.13;4.88;;;11.60;2.60;;;;;;5004367;28;25179;-70
2022/04/30 08:52:31;;;;;;;10.65;4.95;;;12.20;2.60;;;;;;5004850;28;25072;-70
2022/04/30 08:54:56;;;;;;;9.20;5.50;;;12.00;1.00;;;;;;5006481;28;25126;-71
2022/04/30 08:57:22;;;;;;;9.70;5.28;;;12.20;1.00;;;;;;5003931;28;25144;-69
2022/04/30 08:59:51;;;;;;;13.02;5.40;;;12.20;1.00;;;;;;5005379;28;25084;-71
2022/04/30 09:02:16;;;;;;;9.52;4.63;;;12.30;1.00;;;;;;5003943;28;25061;-70
2022/04/30 09:04:47;;;;;;;11.13;4.90;;;12.20;1.00;;;;;;5003306;28;25053;-69
2022/04/30 09:07:26;;;;;;;8.20;4.43;;;12.30;1.00;;;;;;5004855;28;25146;-72
2022/04/30 09:10:00;;;;;;;19.45;7.00;;;12.20;1.00;;;;;;5000759;28;25091;-70
2022/04/30 09:12:29;;;;;;;10.48;5.63;;;11.40;1.00;;;;;;5004227;28;25152;-71
2022/04/30 09:14:55;;;;;;;10.50;5.38;;;11.20;1.00;;;;;;5002978;28;25135;-72
2022/04/30 09:17:22;;;;;;;9.80;5.78;;;11.40;1.00;;;;;;5002040;28;25062;-71
2022/04/30 09:19:52;;;;;;;8.85;5.82;;;11.50;1.00;;;;;;4999744;28;25053;-70
2022/04/30 09:22:30;;;;;;;10.77;6.07;;;11.90;1.00;;;;;;5000671;28;25072;-73
2022/04/30 09:24:57;;;;;;;9.63;4.70;;;12.60;1.00;;;;;;5000258;28;25066;-72
2022/04/30 09:27:23;;;;;;;6.03;4.60;;;13.00;1.00;;;;;;5002028;28;25073;-72
2022/04/30 09:29:48;;;;;;;10.95;5.22;;;13.10;1.00;;;;;;5004430;28;25079;-72
2022/04/30 09:32:19;;;;;;;9.82;5.28;;;12.90;1.00;;;;;;5003392;28;25061;-70
2022/04/30 09:37:43;;;;;;;9.07;4.03;;;12.10;1.00;;;;;;5004281;28;25152;-70
2022/04/30 09:40:15;;;;;;;8.60;4.45;;;12.10;1.00;;;;;;5006885;28;25062;-72
2022/04/30 09:42:42;;;;;;;10.77;4.22;;;11.60;1.00;;;;;;5013595;28;25072;-71
2022/04/30 09:45:09;;;;;;;6.00;4.07;;;11.40;1.00;;;;;;5003038;28;25182;-72
2022/04/30 09:47:35;;;;;;;5.40;4.03;;;11.40;1.00;;;;;;5031637;28;25054;-70
2022/04/30 09:55:34;;;;;;;10.20;4.40;;;12.10;1.00;;;;;;5013698;28;25067;-71
2022/04/30 09:58:04;;;;;;;10.23;4.18;;;12.60;1.00;;;;;;5034661;28;25137;-71
2022/04/30 10:00:33;;;;;;;5.82;3.40;;;12.90;1.00;;;;;;5024445;28;25117;-68
2022/04/30 10:03:02;;;;;;;8.95;3.38;;;13.00;1.00;;;;;;5024185;28;25110;-72
2022/04/30 10:05:32;;;;;;;4.35;3.10;;;12.80;1.00;;;;;;5025488;28;25078;-71
2022/04/30 10:07:59;;;;;;;5.95;3.72;;;12.50;1.00;;;;;;5028400;28;25069;-73
2022/04/30 10:10:33;;;;;;;5.60;3.78;;;12.00;1.00;;;;;;5025067;28;25092;-72
2022/04/30 10:13:12;;;;;;;5.82;4.00;;;11.90;1.00;;;;;;5018268;28;25064;-71
2022/04/30 10:15:44;;;;;;;12.75;4.82;;;11.50;1.00;;;;;;5021747;28;25061;-69
2022/04/30 10:18:10;;;;;;;8.40;4.50;;;11.20;1.00;;;;;;5014433;28;25091;-69
2022/04/30 10:20:36;;;;;;;7.40;4.50;;;11.10;1.00;;;;;;5016779;28;25073;-70
2022/04/30 10:23:03;;;;;;;9.52;5.10;;;11.00;1.00;;;;;;5016346;28;25142;-72
2022/04/30 10:25:40;;;;;;;7.55;4.82;;;10.90;2.20;;;;;;5014680;28;25074;-69
2022/04/30 10:28:15;;;;;;;9.73;5.03;;;10.80;4.80;;;;;;5016864;28;25081;-71
2022/04/30 10:30:45;;;;;;;13.82;4.90;;;10.60;5.80;;;;;;5011892;28;25064;-70
2022/04/30 10:33:11;;;;;;;5.57;3.83;;;10.70;5.10;;;;;;5013365;28;25063;-70
2022/04/30 10:35:45;;;;;;;6.03;3.10;;;10.60;1.90;;;;;;5006694;28;25142;-68
2022/04/30 10:38:19;;;;;;;7.30;3.95;;;10.70;1.50;;;;;;5005160;28;25071;-70
2022/04/30 10:40:50;;;;;;;7.47;3.47;;;10.90;1.00;;;;;;5006110;28;25128;-71
2022/04/30 10:43:31;;;;;;;6.85;3.58;;;11.10;1.00;;;;;;5002236;28;25066;-70
2022/04/30 10:45:57;;;;;;;7.93;2.50;;;11.20;1.00;;;;;;5003115;28;25128;-69
2022/04/30 10:48:23;;;;;;;4.15;2.25;;;11.40;1.00;;;;;;5006155;28;25076;-70
2022/04/30 10:50:59;;;;;;;2.55;2.03;;;11.50;1.00;;;;;;5006139;28;25130;-70
2022/04/30 10:53:27;;;;;;;4.78;2.47;;;11.40;1.00;;;;;;5003453;28;25074;-70
2022/04/30 10:55:54;;;;;;;3.30;2.15;;;11.40;1.00;;;;;;5003640;28;25063;-68
2022/04/30 10:58:27;;;;;;;3.65;2.22;;;11.70;1.00;;;;;;5004438;28;25067;-72
2022/04/30 11:00:54;;;;;;;4.60;2.70;;;11.80;1.00;;;;;;5006604;28;25146;-69
2022/04/30 11:03:26;;;;;;;5.10;2.97;;;11.60;1.00;;;;;;5004148;28;25155;-71
2022/04/30 11:05:51;;;;;;;;;;;11.60;1.00;;;;;;5004732;28;25102;-71
2022/04/30 11:08:17;;;;;;;3.95;2.60;;;11.70;1.00;;;;;;5003994;28;25085;-71
2022/04/30 11:10:53;;;;;;;4.50;2.90;;;11.80;1.00;;;;;;5008205;28;25070;-72
2022/04/30 11:13:19;;;;;;;7.78;2.90;;;11.80;1.00;;;;;;5020938;28;25089;-71
2022/04/30 11:15:45;;;;;;;9.55;3.17;;;11.90;1.00;;;;;;5007676;28;25102;-70
2022/04/30 11:18:11;;;;;;;6.05;3.08;;;12.00;1.00;;;;;;5003288;28;25158;-71
2022/04/30 11:20:37;;;;;;;11.75;3.85;;;12.00;1.00;;;;;;5004521;28;25117;-71
2022/04/30 11:23:03;;;;;;;7.55;3.60;;;11.60;1.00;;;;;;5006082;28;25085;-69
2022/04/30 11:25:39;;;;;;;6.10;3.70;;;11.50;1.00;;;;;;5012805;28;25125;-68
2022/04/30 11:28:06;;;;;;;6.18;3.30;;;11.60;1.00;;;;;;5006314;28;25054;-71
2022/04/30 11:30:38;;;;;;;6.72;2.83;;;11.70;1.00;;;;;;5007456;28;25075;-71
2022/04/30 11:33:05;;;;;;;13.80;4.05;;;11.40;1.00;;;;;;5005446;28;25057;-70
2022/04/30 11:35:30;;;;;;;7.40;3.17;;;11.70;1.00;;;;;;5008034;28;25055;-69
2022/04/30 11:37:56;;;;;;;5.18;2.63;;;11.60;1.00;;;;;;5006361;28;25079;-72
2022/04/30 11:40:23;;;;;;;5.82;3.08;;;11.60;1.00;;;;;;5007650;28;25100;-70
2022/04/30 11:43:14;;;;;;;4.82;2.55;;;11.60;1.00;;;;;;5008647;28;25060;-70
2022/04/30 11:45:40;;;;;;;9.25;3.17;;;11.70;1.00;;;;;;5007673;28;25068;-71
2022/04/30 11:48:06;;;;;;;9.18;3.60;;;11.70;1.00;;;;;;5006638;28;25098;-70
2022/04/30 11:50:32;;;;;;;8.82;3.55;;;12.10;1.00;;;;;;5005999;28;25066;-71
2022/04/30 11:52:58;;;;;;;11.98;3.67;;;12.20;1.00;;;;;;5008696;28;25077;-74
2022/04/30 11:55:24;;;;;;;4.75;3.35;;;12.30;1.00;;;;;;5008573;28;25060;-73
2022/04/30 11:57:50;;;;;;;3.78;3.17;;;12.00;1.00;;;;;;5013017;28;25066;-70
2022/04/30 12:00:17;;;;;;;5.55;3.08;;;12.10;1.00;;;;;;5020875;28;25098;-72
2022/04/30 12:02:46;;;;;;;9.75;3.35;;;12.10;1.00;;;;;;5010439;28;25079;-70
2022/04/30 12:05:13;;;;;;;6.68;3.50;;;11.80;1.00;;;;;;5008219;28;25108;-72
2022/04/30 12:07:43;;;;;;;7.07;4.10;;;11.80;1.00;;;;;;5010717;28;25062;-71
2022/04/30 12:10:24;;;;;;;10.55;3.35;;;11.40;1.00;;;;;;5009663;28;25111;-71
2022/04/30 12:12:52;;;;;;;12.75;3.90;;;11.30;2.20;;;;;;5012601;28;25102;-71
2022/04/30 12:15:19;;;;;;;6.20;3.38;;;11.30;2.70;;;;;;5020510;28;25075;-72
2022/04/30 12:17:45;;;;;;;13.57;3.47;;;11.00;2.70;;;;;;5016674;28;25106;-70
2022/04/30 12:26:03;;;;;;;4.63;3.13;;;10.90;4.70;;;;;;5022545;28;25118;-69
2022/04/30 12:28:30;;;;;;;7.65;3.22;;;10.80;3.60;;;;;;5011424;28;25134;-70
2022/04/30 12:30:56;;;;;;;11.93;3.20;;;10.80;3.80;;;;;;5010222;28;25080;-71
2022/04/30 12:33:22;;;;;;;8.35;2.95;;;10.80;4.30;;;;;;5010688;28;25074;-71
2022/04/30 12:35:55;;;;;;;7.20;3.10;;;10.90;2.60;;;;;;5008094;28;25087;-70
2022/04/30 12:38:21;;;;;;;10.80;2.80;;;10.80;1.80;;;;;;5009303;28;25090;-71
2022/04/30 12:40:47;;;;;;;4.85;2.78;;;11.00;1.90;;;;;;5008530;28;25115;-69
2022/04/30 12:43:14;;;;;;;7.85;3.42;;;10.90;1.00;;;;;;5007511;28;25065;-70
2022/04/30 12:45:47;;;;;;;7.38;2.50;;;10.90;1.10;;;;;;5006205;28;25072;-71
2022/04/30 12:48:14;;;;;;;8.43;3.20;;;11.00;1.00;;;;;;5005648;28;25183;-70
2022/04/30 12:50:40;;;;;;;4.35;2.60;;;11.10;1.00;;;;;;5006556;28;25072;-70
2022/04/30 12:53:09;;;;;;;5.97;3.00;;;11.10;1.00;;;;;;5007845;28;25048;-69
2022/04/30 12:55:36;;;;;;;3.97;2.33;;;11.10;1.00;;;;;;5005863;28;25050;-71
2022/04/30 12:58:02;;;;;;;6.78;2.67;;;11.10;1.00;;;;;;5006745;28;25093;-70
2022/04/30 13:00:28;;;;;;;6.68;2.75;;;11.30;1.00;;;;;;5005298;28;25099;-69
2022/04/30 13:02:53;;;;;;;4.90;2.58;;;11.40;1.00;;;;;;5008780;28;25094;-74
2022/04/30 13:05:19;;;;;;;6.95;2.70;;;11.50;1.00;;;;;;5005835;28;25063;-72
2022/04/30 13:07:45;;;;;;;8.63;3.75;;;11.40;1.00;;;;;;5006499;28;25053;-71
2022/04/30 13:13:57;;;;;;;3.35;1.88;;;11.30;1.00;;;;;;5006278;28;25147;-70
2022/04/30 13:15:53;;;;;;;2.13;1.77;;;11.50;1.00;;;;;;4992340;28;25069;-69
2022/04/30 13:18:18;;;;;;;4.25;2.30;;;11.80;1.00;;;;;;5006057;28;25062;-71
2022/04/30 13:20:44;;;;;;;4.85;2.70;;;11.80;1.00;;;;;;5006200;28;25080;-72
2022/04/30 13:23:09;;;;;;;3.85;1.77;;;11.60;1.00;;;;;;5009120;28;25061;-71
2022/04/30 13:25:36;;;;;;;2.88;2.10;;;11.50;1.00;;;;;;5006355;28;25084;-69
2022/04/30 13:28:03;;;;;;;3.00;2.00;;;11.60;1.00;;;;;;5023374;28;25141;-72